Labuan Airport


Codes: WBKL/LBU
Name: Labuan Airport
City: Labuan
Country: Malaysia
Elevation: 101 ft.
Wikipedia:

Photos at Labuan Airport


   Photos courtesy of SpottingLog. You can add your own sightings and photos by signing up for a free trial today.



No photos found.

Weather at Labuan Airport


Time (UTC)DescriptionTempratureWindCloud coverageVisibilityPressureHumidity
21-Feb-2024 03:00Few Clouds28°C4 mph, S23%10000m1011hPa75%
21-Feb-2024 06:00Few Clouds28°C9 mph, NW20%10000m1009hPa75%
21-Feb-2024 09:00Clear Sky28°C13 mph, NW7%10000m1008hPa77%
21-Feb-2024 12:00Clear Sky27°C7 mph, NW4%10000m1010hPa82%
21-Feb-2024 15:00Clear Sky27°C7 mph, W0%10000m1011hPa82%
21-Feb-2024 18:00Clear Sky27°C4 mph, SW9%10000m1010hPa81%
21-Feb-2024 21:00Overcast Clouds27°C4 mph, SE85%10000m1010hPa83%
22-Feb-2024 00:00Light Rain26°C9 mph, E73%10000m1012hPa82%
22-Feb-2024 03:00Light Rain28°C7 mph, NE9%10000m1012hPa70%
22-Feb-2024 06:00Few Clouds27°C16 mph, N23%10000m1009hPa77%
22-Feb-2024 09:00Few Clouds28°C11 mph, N12%10000m1009hPa79%
22-Feb-2024 12:00Few Clouds27°C9 mph, N11%10000m1011hPa80%
22-Feb-2024 15:00Scattered Clouds27°C7 mph, NE44%10000m1011hPa83%
22-Feb-2024 18:00Scattered Clouds27°C7 mph, S38%10000m1009hPa82%
22-Feb-2024 21:00Few Clouds27°C7 mph, S21%10000m1010hPa81%
23-Feb-2024 00:00Light Rain27°C7 mph, SE17%10000m1012hPa81%
23-Feb-2024 03:00Clear Sky27°C2 mph, SW9%10000m1013hPa77%
23-Feb-2024 06:00Few Clouds28°C13 mph, NW19%10000m1009hPa76%
23-Feb-2024 09:00Overcast Clouds28°C11 mph, N88%10000m1010hPa78%
23-Feb-2024 12:00Light Rain27°C7 mph, N52%10000m1011hPa79%
23-Feb-2024 15:00Light Rain27°C4 mph, N31%10000m1012hPa80%
23-Feb-2024 18:00Moderate Rain26°C2 mph, SE43%10000m1010hPa85%
23-Feb-2024 21:00Light Rain27°C9 mph, S13%10000m1010hPa83%
24-Feb-2024 00:00Light Rain27°C9 mph, S13%10000m1012hPa82%
24-Feb-2024 03:00Broken Clouds27°C4 mph, SW71%10000m1012hPa78%
24-Feb-2024 06:00Light Rain28°C11 mph, NW66%10000m1009hPa77%
24-Feb-2024 09:00Light Rain27°C9 mph, N9%10000m1009hPa80%
24-Feb-2024 12:00Light Rain27°C7 mph, NE42%10000m1011hPa80%
24-Feb-2024 15:00Light Rain27°C2 mph, E37%10000m1012hPa82%
24-Feb-2024 18:00Light Rain27°C9 mph, S30%10000m1010hPa84%
24-Feb-2024 21:00Light Rain26°C7 mph, E81%10000m1010hPa85%
25-Feb-2024 00:00Light Rain26°C4 mph, SE90%10000m1012hPa82%
25-Feb-2024 03:00Overcast Clouds27°C2 mph, SW88%10000m1012hPa76%
25-Feb-2024 06:00Overcast Clouds27°C16 mph, NW92%10000m1009hPa79%
25-Feb-2024 09:00Light Rain27°C13 mph, N76%10000m1008hPa79%
25-Feb-2024 12:00Overcast Clouds27°C13 mph, NE88%10000m1010hPa80%
25-Feb-2024 15:00Light Rain27°C13 mph, N100%10000m1011hPa83%
25-Feb-2024 18:00Moderate Rain26°C7 mph, N90%10000m1009hPa84%
25-Feb-2024 21:00Moderate Rain27°C4 mph, SE100%10000m1009hPa78%
26-Feb-2024 00:00Light Rain26°C11 mph, SE100%10000m1011hPa84%